Time;durP1;ratioP1;P1;durP2;ratioP2;P2;SDS_P1;SDS_P2;PMS_P1;PMS_P2;Temp;Humidity;BMP_temperature;BMP_pressure;BME280_temperature;BME280_humidity;BME280_pressure;Samples;Min_cycle;Max_cycle;Signal;HPM_P1;HPM_P2
2021/01/14 00:00:09;;;;;;;1.23;0.43;;;2.20;99.90;;;;;;5029155;28;20078;-72
2021/01/14 00:02:35;;;;;;;0.70;0.40;;;2.20;99.90;;;;;;5033880;28;20147;-72
2021/01/14 00:05:02;;;;;;;0.55;0.50;;;2.20;99.90;;;;;;5038765;28;20097;-72
2021/01/14 00:07:27;;;;;;;0.50;0.40;;;2.20;99.90;;;;;;5045281;28;20120;-73
2021/01/14 00:09:53;;;;;;;0.55;0.50;;;2.20;99.90;;;;;;5029167;28;20615;-72
2021/01/14 00:12:18;;;;;;;0.45;0.45;;;2.20;99.90;;;;;;5036764;28;20553;-72
2021/01/14 00:14:44;;;;;;;1.17;0.90;;;2.20;99.90;;;;;;5029200;28;20105;-73
2021/01/14 00:17:09;;;;;;;0.95;0.85;;;2.20;99.90;;;;;;5029021;28;20115;-72
2021/01/14 00:19:35;;;;;;;1.23;0.70;;;2.20;99.90;;;;;;5029395;28;20082;-73
2021/01/14 00:22:00;;;;;;;1.08;0.98;;;2.20;99.90;;;;;;5030521;28;20089;-72
2021/01/14 00:24:26;;;;;;;0.85;0.85;;;2.30;99.90;;;;;;5028774;28;20105;-72
2021/01/14 00:26:52;;;;;;;1.05;0.95;;;2.20;99.90;;;;;;5029187;28;20076;-72
2021/01/14 00:29:18;;;;;;;1.98;1.10;;;2.30;99.90;;;;;;5029196;28;20101;-72
2021/01/14 00:31:43;;;;;;;1.13;1.02;;;2.30;99.90;;;;;;5030451;28;20465;-72
2021/01/14 00:34:10;;;;;;;0.95;0.88;;;2.20;99.90;;;;;;5028038;28;20090;-72
2021/01/14 00:39:22;;;;;;;1.40;0.90;;;2.10;99.90;;;;;;5031644;28;20104;-72
2021/01/14 00:41:47;;;;;;;0.85;0.85;;;2.10;99.90;;;;;;5032941;28;20132;-72
2021/01/14 00:44:13;;;;;;;0.95;0.80;;;2.10;99.90;;;;;;5028004;28;20078;-71
2021/01/14 00:46:39;;;;;;;0.95;0.85;;;2.10;99.90;;;;;;5032569;28;20106;-72
2021/01/14 00:49:05;;;;;;;1.25;1.15;;;2.10;99.90;;;;;;5028972;28;20094;-72
2021/01/14 00:51:35;;;;;;;1.67;1.58;;;2.10;99.90;;;;;;5030442;28;20156;-71
2021/01/14 00:54:01;;;;;;;1.33;1.10;;;2.00;99.90;;;;;;5029319;28;20497;-73
2021/01/14 00:56:34;;;;;;;1.27;1.17;;;1.90;99.90;;;;;;5035171;28;20109;-72
2021/01/14 00:59:00;;;;;;;0.95;0.95;;;1.90;99.90;;;;;;5034799;28;20204;-72
2021/01/14 01:01:27;;;;;;;0.73;0.73;;;1.90;99.90;;;;;;5065956;23;20672;-72
2021/01/14 01:03:53;;;;;;;0.80;0.80;;;1.80;99.90;;;;;;4991110;28;20166;-73
2021/01/14 01:06:23;;;;;;;1.25;1.02;;;1.90;99.90;;;;;;4970174;28;20170;-73
2021/01/14 01:08:49;;;;;;;1.60;1.50;;;1.90;99.90;;;;;;4983974;28;20082;-73
2021/01/14 01:11:25;;;;;;;1.40;1.30;;;1.90;99.90;;;;;;4970349;28;20141;-72
2021/01/14 01:13:50;;;;;;;1.80;1.70;;;1.90;99.90;;;;;;4969929;28;20577;-73
2021/01/14 01:16:17;;;;;;;1.95;1.67;;;2.00;99.90;;;;;;4972102;28;20103;-73
2021/01/14 01:18:42;;;;;;;1.60;1.35;;;1.90;99.90;;;;;;4970281;28;20071;-73
2021/01/14 01:21:09;;;;;;;2.00;1.80;;;1.90;99.90;;;;;;4970043;28;20857;-73
2021/01/14 01:23:34;;;;;;;2.28;2.08;;;2.00;99.90;;;;;;4970435;28;20647;-72
2021/01/14 01:26:00;;;;;;;2.95;2.10;;;2.10;99.90;;;;;;4970597;28;20170;-73
2021/01/14 01:28:25;;;;;;;2.35;2.15;;;2.00;99.90;;;;;;4971317;28;20106;-73
2021/01/14 01:30:51;;;;;;;3.05;2.80;;;2.10;99.90;;;;;;4971200;28;20138;-73
2021/01/14 01:33:17;;;;;;;2.60;2.40;;;2.10;99.90;;;;;;4976789;28;20095;-72
2021/01/14 01:35:42;;;;;;;2.55;2.35;;;2.10;99.90;;;;;;4971174;28;20118;-72
2021/01/14 01:38:08;;;;;;;2.60;2.22;;;2.10;99.90;;;;;;4973818;28;20073;-73
2021/01/14 01:40:33;;;;;;;4.43;2.90;;;2.10;99.90;;;;;;4973757;28;20071;-73
2021/01/14 01:42:59;;;;;;;2.97;2.67;;;2.00;99.90;;;;;;4973312;28;20118;-73
2021/01/14 01:45:25;;;;;;;2.50;2.30;;;2.00;99.90;;;;;;4974862;28;20079;-74
2021/01/14 01:47:51;;;;;;;2.72;2.45;;;2.00;99.90;;;;;;4990176;28;20082;-73
2021/01/14 01:50:20;;;;;;;2.95;2.45;;;2.00;99.90;;;;;;4981968;28;20492;-73
2021/01/14 01:52:48;;;;;;;2.30;2.10;;;2.00;99.90;;;;;;4990270;28;20107;-73
2021/01/14 01:55:14;;;;;;;2.75;2.22;;;2.00;99.90;;;;;;4973481;28;20091;-73
2021/01/14 01:57:40;;;;;;;3.15;2.40;;;1.90;99.90;;;;;;4989157;28;20098;-73
2021/01/14 02:00:06;;;;;;;3.10;2.65;;;1.90;99.90;;;;;;4989098;28;20083;-74
2021/01/14 02:02:32;;;;;;;3.17;2.65;;;1.90;99.90;;;;;;4991659;28;20198;-74
2021/01/14 02:04:58;;;;;;;3.00;2.67;;;2.00;99.90;;;;;;4992663;28;20210;-73
2021/01/14 02:07:34;;;;;;;3.00;2.40;;;1.90;99.90;;;;;;4991591;28;20438;-73
2021/01/14 02:10:00;;;;;;;2.95;2.63;;;1.90;99.90;;;;;;4976342;28;20074;-73
2021/01/14 02:12:35;;;;;;;3.33;2.65;;;1.90;99.90;;;;;;4972384;28;20087;-73
2021/01/14 02:15:01;;;;;;;;;;;1.90;99.90;;;;;;4972496;28;20083;-72
2021/01/14 02:17:27;;;;;;;2.55;2.08;;;1.90;99.90;;;;;;4974357;28;19963;-73
2021/01/14 02:19:54;;;;;;;2.88;2.45;;;1.80;99.90;;;;;;4986582;28;20158;-73
2021/01/14 02:22:28;;;;;;;2.92;2.67;;;1.80;99.90;;;;;;4987553;28;20127;-73
2021/01/14 02:25:14;;;;;;;3.00;2.50;;;1.80;99.90;;;;;;4972688;28;20075;-73
2021/01/14 02:27:40;;;;;;;2.33;2.13;;;1.80;99.90;;;;;;4972312;28;20086;-73
2021/01/14 02:30:09;;;;;;;3.40;2.50;;;1.90;99.90;;;;;;4987412;28;20083;-73
2021/01/14 02:32:34;;;;;;;3.13;2.40;;;1.90;99.90;;;;;;4972894;28;20095;-73
2021/01/14 02:35:00;;;;;;;3.10;2.63;;;1.90;99.90;;;;;;4987018;28;20079;-73
2021/01/14 02:37:26;;;;;;;3.03;2.70;;;1.90;99.90;;;;;;4978042;28;20606;-73
2021/01/14 02:39:51;;;;;;;5.57;2.92;;;1.90;99.90;;;;;;4972673;28;20570;-72
2021/01/14 02:42:17;;;;;;;3.45;2.90;;;1.90;99.90;;;;;;4971325;28;20602;-72
2021/01/14 02:44:42;;;;;;;3.17;2.05;;;2.00;99.90;;;;;;4969525;28;20079;-73
2021/01/14 02:47:10;;;;;;;2.90;2.25;;;1.90;99.90;;;;;;4980917;28;20079;-73
2021/01/14 02:50:02;;;;;;;2.35;2.15;;;2.00;99.90;;;;;;4972470;28;20170;-74
2021/01/14 02:52:29;;;;;;;2.60;2.40;;;2.00;99.90;;;;;;4971055;28;20103;-73
2021/01/14 02:54:58;;;;;;;3.03;2.30;;;1.90;99.90;;;;;;4969940;28;20380;-73
2021/01/14 02:57:26;;;;;;;2.55;2.30;;;2.00;99.90;;;;;;4978930;28;20082;-73
2021/01/14 02:59:53;;;;;;;4.15;2.28;;;2.00;99.90;;;;;;4980286;28;20079;-73
2021/01/14 03:02:19;;;;;;;2.92;2.22;;;2.00;99.90;;;;;;4972228;28;20189;-73
2021/01/14 03:04:45;;;;;;;3.03;2.15;;;2.10;99.90;;;;;;4970146;28;20159;-73
2021/01/14 03:07:11;;;;;;;2.78;2.47;;;2.00;99.90;;;;;;4987538;28;20074;-72
2021/01/14 03:09:36;;;;;;;2.55;2.25;;;2.00;99.90;;;;;;4974610;28;20088;-72
2021/01/14 03:12:02;;;;;;;2.83;2.10;;;2.00;99.90;;;;;;4982475;28;20101;-73
2021/01/14 03:14:27;;;;;;;3.33;1.73;;;2.00;99.90;;;;;;4972523;28;20167;-73
2021/01/14 03:16:53;;;;;;;2.45;2.03;;;2.00;99.90;;;;;;4984744;28;20093;-72
2021/01/14 03:19:18;;;;;;;2.22;1.98;;;2.10;99.90;;;;;;4990005;28;20081;-73
2021/01/14 03:21:44;;;;;;;1.98;1.77;;;2.10;99.90;;;;;;4973894;28;20095;-72
2021/01/14 03:24:10;;;;;;;2.13;1.90;;;2.00;99.90;;;;;;4971334;28;20125;-72
2021/01/14 03:26:36;;;;;;;2.58;2.00;;;2.10;99.90;;;;;;4973257;28;20083;-72
2021/01/14 03:29:02;;;;;;;2.40;2.20;;;2.10;99.90;;;;;;4985392;28;20071;-72
2021/01/14 03:31:28;;;;;;;2.60;2.40;;;2.00;99.90;;;;;;4971089;28;20091;-72
2021/01/14 03:33:53;;;;;;;3.13;2.80;;;2.00;99.90;;;;;;4988762;28;20091;-72
2021/01/14 03:36:19;;;;;;;3.92;2.22;;;2.00;99.90;;;;;;4984811;28;20072;-73
2021/01/14 03:38:45;;;;;;;2.22;2.00;;;2.00;99.90;;;;;;4989059;28;20074;-73
2021/01/14 03:41:14;;;;;;;2.28;1.88;;;2.10;99.90;;;;;;4976473;28;20458;-73
2021/01/14 03:43:40;;;;;;;4.13;2.28;;;2.10;99.90;;;;;;4976128;28;20087;-73
2021/01/14 03:46:16;;;;;;;2.50;2.20;;;2.10;99.90;;;;;;4985556;28;20083;-73
2021/01/14 03:48:43;;;;;;;2.97;2.00;;;2.10;99.90;;;;;;4985589;28;20145;-73
2021/01/14 03:51:20;;;;;;;2.58;1.80;;;2.00;99.90;;;;;;4987818;28;20101;-74
2021/01/14 03:53:47;;;;;;;3.17;2.33;;;2.00;99.90;;;;;;4986169;28;20095;-73
2021/01/14 03:56:13;;;;;;;2.92;2.33;;;2.00;99.90;;;;;;4989518;28;20593;-73
2021/01/14 03:58:39;;;;;;;5.57;2.67;;;2.00;99.90;;;;;;4989750;28;20075;-73
2021/01/14 04:01:06;;;;;;;3.22;2.72;;;2.00;99.90;;;;;;4988369;28;20079;-74
2021/01/14 04:03:32;;;;;;;3.72;2.50;;;2.00;99.90;;;;;;4971168;28;20087;-73
2021/01/14 04:05:57;;;;;;;3.85;2.65;;;1.90;99.90;;;;;;4979778;28;20178;-73
2021/01/14 04:08:23;;;;;;;4.53;2.65;;;1.90;99.90;;;;;;4972943;28;20158;-73
2021/01/14 04:10:49;;;;;;;3.42;2.97;;;1.90;99.90;;;;;;4977365;28;20500;-74
2021/01/14 04:13:15;;;;;;;3.40;2.50;;;1.90;99.90;;;;;;4980987;28;20566;-73
2021/01/14 04:15:41;;;;;;;4.32;2.28;;;1.90;99.90;;;;;;4972274;28;20210;-73
2021/01/14 04:18:07;;;;;;;5.32;2.72;;;1.90;99.90;;;;;;4975906;28;20071;-73
2021/01/14 04:20:33;;;;;;;3.13;2.53;;;1.90;99.90;;;;;;4975170;28;20082;-73
2021/01/14 04:22:59;;;;;;;3.97;2.60;;;1.90;99.90;;;;;;4975733;28;20090;-73
2021/01/14 04:25:30;;;;;;;3.47;2.75;;;1.80;99.90;;;;;;4977689;28;20075;-73
2021/01/14 04:27:58;;;;;;;3.95;2.53;;;1.90;99.90;;;;;;4973456;28;20527;-73
2021/01/14 04:30:24;;;;;;;3.17;2.65;;;1.90;99.90;;;;;;4989904;28;20074;-73
2021/01/14 04:32:57;;;;;;;4.75;3.03;;;1.90;99.90;;;;;;4980751;28;20467;-73
2021/01/14 04:35:24;;;;;;;3.35;2.90;;;1.90;99.90;;;;;;4972267;28;20540;-73
2021/01/14 04:37:49;;;;;;;5.53;3.03;;;1.90;99.90;;;;;;4985372;28;20083;-73
2021/01/14 04:40:15;;;;;;;4.75;3.15;;;1.80;99.90;;;;;;4971106;28;20071;-73
2021/01/14 04:42:43;;;;;;;3.80;3.15;;;1.80;99.90;;;;;;4991022;28;20089;-73
2021/01/14 04:45:09;;;;;;;3.88;3.08;;;1.80;99.90;;;;;;4989557;28;20453;-73
2021/01/14 04:47:37;;;;;;;5.22;3.60;;;1.80;99.90;;;;;;4990867;28;20079;-73
2021/01/14 04:50:03;;;;;;;4.78;3.03;;;1.80;99.90;;;;;;4985656;28;20289;-73
2021/01/14 04:52:33;;;;;;;5.57;3.22;;;1.80;99.90;;;;;;4985385;28;20571;-73
2021/01/14 04:55:01;;;;;;;4.85;3.65;;;1.80;99.90;;;;;;4974207;28;20487;-73
2021/01/14 04:57:29;;;;;;;5.78;3.75;;;1.80;99.90;;;;;;4983629;28;20688;-73
2021/01/14 04:59:59;;;;;;;5.85;3.88;;;1.80;99.90;;;;;;4973104;28;20079;-73
2021/01/14 05:02:25;;;;;;;5.93;3.90;;;1.80;99.90;;;;;;4973783;28;20149;-73
2021/01/14 05:04:52;;;;;;;4.45;3.65;;;1.80;99.90;;;;;;4983416;28;20106;-73
2021/01/14 05:07:45;;;;;;;4.78;4.03;;;1.80;99.90;;;;;;4969759;28;20083;-73
2021/01/14 05:10:12;;;;;;;6.47;3.90;;;1.80;99.90;;;;;;4993559;28;20071;-73
2021/01/14 05:12:40;;;;;;;3.67;2.88;;;1.80;99.90;;;;;;4979501;28;20154;-73
2021/01/14 05:15:06;;;;;;;5.88;3.40;;;1.80;99.90;;;;;;4992402;28;20071;-73
2021/01/14 05:17:32;;;;;;;7.63;4.32;;;1.70;99.90;;;;;;4975331;28;20071;-73
2021/01/14 05:19:58;;;;;;;6.05;3.97;;;1.80;99.90;;;;;;4987710;28;20082;-73
2021/01/14 05:22:24;;;;;;;6.35;3.65;;;1.80;99.90;;;;;;4981551;28;20188;-73
2021/01/14 05:25:11;;;;;;;4.40;3.90;;;1.80;99.90;;;;;;4990830;28;20075;-73
2021/01/14 05:27:37;;;;;;;7.07;4.38;;;1.80;99.90;;;;;;4987692;28;20098;-73
2021/01/14 05:30:06;;;;;;;5.88;4.07;;;1.90;99.90;;;;;;4984509;28;20145;-73
2021/01/14 05:32:33;;;;;;;5.63;3.50;;;1.80;99.90;;;;;;4983850;28;20230;-73
2021/01/14 05:34:58;;;;;;;6.32;4.25;;;1.70;99.90;;;;;;4978266;28;20209;-73
2021/01/14 05:37:24;;;;;;;6.60;3.85;;;1.70;99.90;;;;;;4983722;28;20150;-73
2021/01/14 05:39:50;;;;;;;8.32;4.15;;;1.70;99.90;;;;;;4984635;28;20081;-73
2021/01/14 05:42:16;;;;;;;5.68;4.10;;;1.70;99.90;;;;;;4984484;28;20099;-72
2021/01/14 05:44:42;;;;;;;5.57;4.68;;;1.80;99.90;;;;;;4984052;28;20078;-71
2021/01/14 05:47:21;;;;;;;7.18;5.13;;;1.80;99.90;;;;;;4982698;28;20075;-71
2021/01/14 05:49:56;;;;;;;7.50;5.25;;;1.70;99.90;;;;;;4979774;28;20087;-72
2021/01/14 05:52:24;;;;;;;6.80;5.28;;;1.70;99.90;;;;;;4981212;28;20149;-72
2021/01/14 05:55:04;;;;;;;10.13;6.82;;;1.70;99.90;;;;;;4979660;28;20522;-71
2021/01/14 05:57:32;;;;;;;5.88;4.50;;;1.70;99.90;;;;;;4990625;28;20150;-72
2021/01/14 06:00:00;;;;;;;5.18;4.00;;;1.60;99.90;;;;;;4992111;28;20103;-71
2021/01/14 06:02:31;;;;;;;7.50;4.78;;;1.70;99.90;;;;;;4978246;28;20658;-71
2021/01/14 06:04:57;;;;;;;5.55;4.30;;;1.60;99.90;;;;;;4973169;28;20491;-72
2021/01/14 06:07:36;;;;;;;7.07;4.18;;;1.60;99.90;;;;;;4982374;28;20551;-72
2021/01/14 06:10:02;;;;;;;7.93;4.32;;;1.50;99.90;;;;;;4976666;28;20083;-72
2021/01/14 06:12:28;;;;;;;6.47;4.18;;;1.60;99.90;;;;;;4984927;28;20145;-71
2021/01/14 06:14:54;;;;;;;6.30;3.65;;;1.50;99.90;;;;;;4973845;28;20079;-71
2021/01/14 06:17:30;;;;;;;6.22;3.50;;;1.60;99.90;;;;;;4975943;28;20660;-71
2021/01/14 06:20:08;;;;;;;5.13;3.65;;;1.50;99.90;;;;;;4976414;28;20133;-71
2021/01/14 06:22:36;;;;;;;6.32;3.92;;;1.50;99.90;;;;;;4975959;28;20152;-72
2021/01/14 06:25:04;;;;;;;6.10;4.13;;;1.60;99.90;;;;;;4986522;28;20126;-72
2021/01/14 06:27:31;;;;;;;7.53;5.18;;;1.50;99.90;;;;;;4990519;28;20071;-72
2021/01/14 06:30:02;;;;;;;8.40;4.97;;;1.60;99.90;;;;;;4985739;28;20076;-72
2021/01/14 06:32:28;;;;;;;5.72;3.60;;;1.60;99.90;;;;;;4987741;28;20156;-72
2021/01/14 06:34:54;;;;;;;6.00;3.75;;;1.50;99.90;;;;;;4978606;28;20083;-71
2021/01/14 06:37:24;;;;;;;6.15;3.67;;;1.50;99.90;;;;;;4977436;28;20074;-72
2021/01/14 06:39:54;;;;;;;6.97;3.70;;;1.50;99.90;;;;;;4973600;28;20558;-72
2021/01/14 06:42:31;;;;;;;6.35;3.47;;;1.50;99.90;;;;;;4971509;28;20087;-71
2021/01/14 06:45:19;;;;;;;4.82;3.25;;;1.40;99.90;;;;;;4971482;28;20083;-71
2021/01/14 06:47:46;;;;;;;4.90;3.45;;;1.40;99.90;;;;;;4975748;28;20074;-71
2021/01/14 06:50:14;;;;;;;4.65;2.70;;;1.40;99.90;;;;;;4981971;28;20131;-72
2021/01/14 06:52:46;;;;;;;5.45;3.28;;;1.40;99.90;;;;;;4971708;28;20102;-72
2021/01/14 06:55:14;;;;;;;7.50;2.97;;;1.40;99.90;;;;;;4978181;28;20114;-71
2021/01/14 06:57:54;;;;;;;3.67;2.63;;;1.50;99.90;;;;;;4976595;28;20078;-72
2021/01/14 07:00:22;;;;;;;5.57;2.92;;;1.50;99.90;;;;;;4983006;28;20078;-72
2021/01/14 07:03:13;;;;;;;3.83;2.75;;;1.40;99.90;;;;;;4981020;28;20095;-72
2021/01/14 07:05:51;;;;;;;5.88;3.47;;;1.40;99.90;;;;;;4978485;28;20196;-72
2021/01/14 07:09:01;;;;;;;5.05;2.75;;;1.40;99.90;;;;;;4978647;28;20078;-74
2021/01/14 07:11:33;;;;;;;5.40;3.30;;;1.40;99.90;;;;;;4970081;28;20129;-74
2021/01/14 07:14:11;;;;;;;6.95;3.25;;;1.40;99.90;;;;;;4973486;28;20094;-71
2021/01/14 07:16:42;;;;;;;5.97;3.70;;;1.40;99.90;;;;;;4983237;28;20149;-76
2021/01/14 07:19:07;;;;;;;6.00;3.80;;;1.40;99.90;;;;;;4974887;28;20558;-72
2021/01/14 07:21:35;;;;;;;5.03;3.90;;;1.50;99.90;;;;;;4985896;28;20086;-72
2021/01/14 07:24:01;;;;;;;5.10;2.95;;;1.50;99.90;;;;;;4979437;28;20093;-71
2021/01/14 07:26:27;;;;;;;5.78;3.60;;;1.40;99.90;;;;;;4974351;28;20071;-73
2021/01/14 07:28:54;;;;;;;4.43;3.45;;;1.40;99.90;;;;;;4984734;28;20090;-73
2021/01/14 07:31:21;;;;;;;6.22;3.58;;;1.40;99.90;;;;;;4973666;28;20090;-72
2021/01/14 07:33:47;;;;;;;4.60;3.50;;;1.30;99.90;;;;;;4980646;28;20471;-72
2021/01/14 07:36:41;;;;;;;7.82;3.85;;;1.40;99.90;;;;;;4969693;28;20082;-71
2021/01/14 07:39:07;;;;;;;5.47;3.70;;;1.40;99.90;;;;;;4980140;28;20078;-71
2021/01/14 07:41:55;;;;;;;4.75;3.05;;;1.30;99.90;;;;;;4976248;28;20099;-72
2021/01/14 07:44:21;;;;;;;3.95;3.20;;;1.40;99.90;;;;;;4974246;28;20086;-70
2021/01/14 07:46:50;;;;;;;4.57;3.17;;;1.40;99.90;;;;;;4988253;28;20454;-71
2021/01/14 07:49:28;;;;;;;4.97;3.38;;;1.30;99.90;;;;;;4988388;28;20486;-70
2021/01/14 07:51:54;;;;;;;5.07;3.95;;;1.30;99.90;;;;;;4987553;28;20101;-71
2021/01/14 07:54:20;;;;;;;5.32;2.95;;;1.30;99.90;;;;;;4981993;28;20085;-71
2021/01/14 07:56:52;;;;;;;5.60;3.22;;;1.40;99.90;;;;;;4969828;28;20076;-71
2021/01/14 07:59:28;;;;;;;5.32;3.10;;;1.30;99.90;;;;;;4980435;28;20075;-71
2021/01/14 08:02:01;;;;;;;5.25;3.88;;;1.30;99.90;;;;;;4987681;28;20098;-72
2021/01/14 08:04:27;;;;;;;6.40;4.07;;;1.30;99.90;;;;;;4974175;28;20078;-71
2021/01/14 08:06:53;;;;;;;8.90;4.00;;;1.30;99.90;;;;;;4985973;28;20540;-72
2021/01/14 08:09:19;;;;;;;5.53;3.50;;;1.30;99.90;;;;;;4971507;28;20157;-73
2021/01/14 08:11:44;;;;;;;6.13;2.95;;;1.30;99.90;;;;;;4984351;28;20095;-73
2021/01/14 08:14:18;;;;;;;5.72;3.33;;;1.40;99.90;;;;;;4981006;28;20093;-72
2021/01/14 08:16:49;;;;;;;6.03;3.50;;;1.40;99.90;;;;;;4980156;28;20102;-71
2021/01/14 08:19:28;;;;;;;8.05;5.47;;;1.40;99.90;;;;;;4969536;28;20708;-71
2021/01/14 08:22:02;;;;;;;14.40;8.02;;;1.40;99.90;;;;;;4967636;28;20094;-72
2021/01/14 08:24:51;;;;;;;15.90;6.22;;;1.50;99.90;;;;;;4982163;28;20493;-72
2021/01/14 08:27:24;;;;;;;14.77;7.53;;;1.50;99.90;;;;;;4985847;28;20120;-72
2021/01/14 08:29:56;;;;;;;12.52;6.45;;;1.50;99.90;;;;;;4977588;28;20079;-72
2021/01/14 08:32:29;;;;;;;13.02;6.63;;;1.40;99.90;;;;;;4976863;28;20522;-71
2021/01/14 08:34:55;;;;;;;10.13;5.15;;;1.50;99.90;;;;;;4973727;28;20071;-71
2021/01/14 08:37:45;;;;;;;7.78;4.93;;;1.40;99.90;;;;;;4979989;28;20083;-71
2021/01/14 08:40:32;;;;;;;8.23;3.95;;;1.30;99.90;;;;;;4972440;28;20075;-71
2021/01/14 08:43:07;;;;;;;7.13;4.13;;;1.40;99.90;;;;;;4974750;28;20107;-71
2021/01/14 08:45:51;;;;;;;8.98;3.95;;;1.40;99.90;;;;;;4973191;28;20140;-71
2021/01/14 08:48:26;;;;;;;8.80;5.00;;;1.50;99.90;;;;;;4975208;28;20122;-71
2021/01/14 08:50:55;;;;;;;7.97;4.93;;;1.50;99.90;;;;;;4979497;28;20427;-72
2021/01/14 08:53:29;;;;;;;7.35;4.10;;;1.50;99.90;;;;;;4969463;28;20108;-71
2021/01/14 08:56:09;;;;;;;15.57;4.88;;;1.50;99.90;;;;;;4983335;28;20085;-72
2021/01/14 08:58:39;;;;;;;15.88;4.97;;;1.50;99.90;;;;;;4968952;28;20447;-72
2021/01/14 09:01:07;;;;;;;10.35;6.75;;;1.50;99.90;;;;;;4973357;28;20083;-73
2021/01/14 09:03:35;;;;;;;10.43;4.40;;;1.40;99.90;;;;;;4970323;28;20436;-72
2021/01/14 09:06:01;;;;;;;7.50;4.22;;;1.50;99.90;;;;;;4971196;28;20086;-72
2021/01/14 09:08:26;;;;;;;8.13;4.45;;;1.50;99.90;;;;;;4984579;28;20075;-72
2021/01/14 09:10:56;;;;;;;9.85;5.05;;;1.40;99.90;;;;;;4970158;28;20125;-72
2021/01/14 09:13:25;;;;;;;6.20;3.53;;;1.40;99.90;;;;;;4983441;28;20582;-72
2021/01/14 09:15:54;;;;;;;12.68;5.60;;;1.50;99.90;;;;;;4982799;28;20071;-72
2021/01/14 09:18:32;;;;;;;12.40;7.03;;;1.40;99.90;;;;;;4975901;28;20090;-71
2021/01/14 09:20:58;;;;;;;12.40;6.00;;;1.50;99.90;;;;;;4982794;28;20101;-72
2021/01/14 09:23:32;;;;;;;8.38;5.00;;;1.50;99.90;;;;;;4984493;28;20083;-72
2021/01/14 09:25:58;;;;;;;10.13;4.65;;;1.60;99.90;;;;;;4977060;28;20102;-72
2021/01/14 09:28:26;;;;;;;7.07;4.25;;;1.60;99.90;;;;;;4972146;28;20087;-72
2021/01/14 09:30:57;;;;;;;6.07;3.65;;;1.50;99.90;;;;;;4974926;28;20598;-72
2021/01/14 09:33:24;;;;;;;7.28;4.18;;;1.50;99.90;;;;;;4979644;28;20138;-73
2021/01/14 09:36:23;;;;;;;9.32;4.20;;;1.50;99.90;;;;;;4979680;28;20067;-72
2021/01/14 09:38:52;;;;;;;6.07;3.65;;;1.50;99.90;;;;;;4978939;28;20075;-73
2021/01/14 09:41:29;;;;;;;6.32;3.47;;;1.60;99.90;;;;;;4981858;28;20094;-72
2021/01/14 09:43:59;;;;;;;6.60;3.65;;;1.50;99.90;;;;;;4970760;28;20086;-72
2021/01/14 09:46:28;;;;;;;11.00;4.10;;;1.50;99.90;;;;;;4972294;28;20095;-73
2021/01/14 09:49:04;;;;;;;6.22;3.53;;;1.50;99.90;;;;;;4983913;28;20083;-72
2021/01/14 09:51:30;;;;;;;8.35;5.13;;;1.50;99.90;;;;;;4986154;28;20086;-74
2021/01/14 09:53:56;;;;;;;6.28;2.78;;;1.40;99.90;;;;;;4986618;28;20117;-73
2021/01/14 09:56:28;;;;;;;6.63;3.60;;;1.40;99.90;;;;;;4989834;28;20075;-73
2021/01/14 09:58:56;;;;;;;5.60;3.53;;;1.50;99.90;;;;;;4988907;28;20149;-72
2021/01/14 10:01:32;;;;;;;6.63;3.15;;;1.40;99.90;;;;;;4984855;28;20149;-73
2021/01/14 10:04:12;;;;;;;7.35;3.80;;;1.30;99.90;;;;;;4982213;28;20731;-72
2021/01/14 10:06:43;;;;;;;8.07;3.97;;;1.30;99.90;;;;;;4984347;28;20074;-73
2021/01/14 10:09:09;;;;;;;8.20;4.22;;;1.30;99.90;;;;;;4982663;28;20070;-73
2021/01/14 10:11:35;;;;;;;8.20;3.78;;;1.30;99.90;;;;;;4986548;28;20094;-73
2021/01/14 10:14:01;;;;;;;18.67;7.82;;;1.30;99.90;;;;;;4983181;28;21632;-72
2021/01/14 10:16:29;;;;;;;8.60;5.13;;;1.30;99.90;;;;;;4990273;28;20075;-73
2021/01/14 10:19:08;;;;;;;5.82;3.30;;;1.30;99.90;;;;;;4984554;28;20162;-73
2021/01/14 10:21:37;;;;;;;14.60;6.18;;;1.30;99.90;;;;;;4980224;28;20634;-73
2021/01/14 10:24:03;;;;;;;8.77;3.60;;;1.20;99.90;;;;;;4981245;28;20082;-73
2021/01/14 10:26:29;;;;;;;13.65;4.75;;;1.20;99.90;;;;;;4989384;28;20075;-73
2021/01/14 10:28:55;;;;;;;7.15;3.83;;;1.20;99.90;;;;;;4992255;28;20550;-72
2021/01/14 10:31:35;;;;;;;45.00;15.32;;;1.20;99.90;;;;;;4987343;28;20458;-74
2021/01/14 10:34:01;;;;;;;18.45;7.05;;;1.10;99.90;;;;;;4979838;28;20091;-72
2021/01/14 10:36:47;;;;;;;16.83;5.50;;;1.10;99.90;;;;;;4978022;28;20137;-74
2021/01/14 10:39:13;;;;;;;9.65;3.42;;;1.10;99.90;;;;;;4988400;28;20070;-72
2021/01/14 10:41:40;;;;;;;6.43;2.60;;;1.00;99.90;;;;;;4970801;28;20095;-72
2021/01/14 10:44:06;;;;;;;6.18;3.30;;;0.90;99.90;;;;;;4975909;28;20086;-73
2021/01/14 10:46:32;;;;;;;8.32;3.67;;;0.90;99.90;;;;;;4988150;28;20074;-73
2021/01/14 10:49:08;;;;;;;12.93;5.55;;;0.90;99.90;;;;;;4991646;28;20082;-72
2021/01/14 10:51:33;;;;;;;6.28;2.60;;;1.00;99.90;;;;;;4990853;28;20752;-72
2021/01/14 10:53:59;;;;;;;8.38;3.13;;;1.00;99.90;;;;;;4981397;28;20102;-72
2021/01/14 10:56:25;;;;;;;8.40;4.55;;;1.00;99.90;;;;;;4985749;28;20456;-73
2021/01/14 10:59:08;;;;;;;7.05;3.60;;;1.00;99.90;;;;;;4986754;28;20562;-72
2021/01/14 11:01:33;;;;;;;13.07;6.55;;;0.90;99.90;;;;;;4979213;28;20099;-72
2021/01/14 11:04:07;;;;;;;9.93;4.72;;;1.00;99.90;;;;;;4980595;28;20086;-71
2021/01/14 11:06:36;;;;;;;10.00;4.95;;;1.00;99.90;;;;;;4979476;28;20106;-72
2021/01/14 11:09:04;;;;;;;11.30;4.75;;;1.00;99.90;;;;;;4986612;28;20446;-72
2021/01/14 11:11:30;;;;;;;15.77;6.30;;;1.00;99.90;;;;;;4987424;28;20156;-73
2021/01/14 11:13:56;;;;;;;18.75;6.40;;;1.00;99.90;;;;;;4983877;28;20094;-71
2021/01/14 11:16:26;;;;;;;5.85;3.63;;;1.00;99.90;;;;;;4982585;28;20082;-72
2021/01/14 11:18:58;;;;;;;8.52;3.55;;;1.00;99.90;;;;;;4975535;28;20102;-71
2021/01/14 11:21:28;;;;;;;10.63;4.68;;;0.90;99.90;;;;;;4971289;28;20095;-71
2021/01/14 11:23:54;;;;;;;33.63;10.65;;;0.80;99.90;;;;;;4973016;28;20106;-72
2021/01/14 11:26:20;;;;;;;10.80;4.70;;;0.90;99.90;;;;;;4977756;28;20072;-72
2021/01/14 11:28:46;;;;;;;7.03;2.50;;;0.90;99.90;;;;;;4978199;28;20497;-73
2021/01/14 11:31:23;;;;;;;6.65;2.00;;;0.80;99.90;;;;;;4987799;28;20133;-71
2021/01/14 11:33:49;;;;;;;6.00;2.33;;;0.80;99.90;;;;;;4986751;28;20109;-71
2021/01/14 11:36:19;;;;;;;5.85;2.78;;;0.80;99.90;;;;;;4980406;28;20407;-73
2021/01/14 11:38:45;;;;;;;4.85;2.58;;;0.80;99.90;;;;;;4982404;28;20566;-73
2021/01/14 11:41:10;;;;;;;6.03;2.90;;;0.90;99.90;;;;;;4982105;28;20115;-72
2021/01/14 11:43:37;;;;;;;6.47;2.53;;;0.70;99.90;;;;;;4979052;28;20075;-71
2021/01/14 11:46:04;;;;;;;3.58;2.28;;;0.80;99.90;;;;;;4984411;28;20090;-71
2021/01/14 11:48:29;;;;;;;3.97;2.38;;;0.80;99.90;;;;;;4973450;28;20083;-72
2021/01/14 11:50:55;;;;;;;8.95;3.13;;;0.80;99.90;;;;;;4983455;28;20076;-71
2021/01/14 11:53:20;;;;;;;5.10;2.67;;;0.80;99.90;;;;;;4980395;28;20141;-73
2021/01/14 11:55:46;;;;;;;3.35;2.15;;;0.90;99.90;;;;;;4974593;28;20214;-74
2021/01/14 11:58:11;;;;;;;8.25;3.42;;;0.80;99.90;;;;;;4972472;28;20486;-72
2021/01/14 12:00:37;;;;;;;5.45;2.33;;;0.90;99.90;;;;;;4986988;28;20074;-71
2021/01/14 12:03:06;;;;;;;6.35;2.20;;;0.90;99.90;;;;;;4973489;28;20102;-71
2021/01/14 12:05:33;;;;;;;6.05;2.47;;;0.90;99.90;;;;;;4970156;28;20078;-71
2021/01/14 12:07:59;;;;;;;6.15;2.50;;;1.00;99.90;;;;;;4969965;28;20075;-71
2021/01/14 12:10:24;;;;;;;6.43;2.80;;;0.90;99.90;;;;;;4985181;28;20443;-71
2021/01/14 12:12:50;;;;;;;5.18;1.98;;;0.90;99.90;;;;;;4981668;28;20102;-71
2021/01/14 12:15:15;;;;;;;3.78;1.77;;;0.80;99.90;;;;;;4978997;28;20082;-71
2021/01/14 12:17:41;;;;;;;4.10;2.70;;;0.90;99.90;;;;;;4983065;28;20186;-71
2021/01/14 12:20:07;;;;;;;4.30;1.75;;;0.90;99.90;;;;;;4984013;28;20541;-73
2021/01/14 12:22:38;;;;;;;7.85;4.22;;;0.80;99.90;;;;;;4982838;28;20107;-72
2021/01/14 12:25:10;;;;;;;6.43;3.22;;;0.90;99.90;;;;;;4983640;28;20165;-71
2021/01/14 12:27:37;;;;;;;6.15;2.30;;;0.90;99.90;;;;;;4979110;28;20574;-73
2021/01/14 12:30:04;;;;;;;6.60;3.08;;;0.90;99.90;;;;;;4981102;28;20083;-74
2021/01/14 12:32:30;;;;;;;4.30;1.73;;;1.00;99.90;;;;;;4975839;28;20101;-72
2021/01/14 12:34:56;;;;;;;3.40;1.65;;;0.80;99.90;;;;;;4986382;28;20075;-72
2021/01/14 12:37:22;;;;;;;4.80;1.70;;;0.90;99.90;;;;;;4983024;28;20120;-71
2021/01/14 12:39:47;;;;;;;4.28;1.38;;;1.00;99.90;;;;;;4978072;28;20190;-71
2021/01/14 12:42:13;;;;;;;3.13;2.08;;;0.90;99.90;;;;;;4987088;28;20169;-75
2021/01/14 12:44:39;;;;;;;3.15;1.73;;;0.90;99.90;;;;;;4987554;28;20079;-72
2021/01/14 12:47:04;;;;;;;4.10;2.08;;;1.00;99.90;;;;;;4989816;28;20082;-74
2021/01/14 12:49:30;;;;;;;3.25;2.53;;;1.10;99.90;;;;;;4984682;28;20075;-72
2021/01/14 12:51:55;;;;;;;4.43;1.58;;;1.00;99.90;;;;;;4982504;28;20178;-72
2021/01/14 12:54:22;;;;;;;4.47;2.42;;;1.00;99.90;;;;;;4969707;28;20146;-72
2021/01/14 12:56:48;;;;;;;5.00;2.75;;;0.90;99.90;;;;;;4970103;28;20122;-72
2021/01/14 12:59:14;;;;;;;2.88;2.00;;;1.00;99.90;;;;;;4969927;28;20094;-72
2021/01/14 13:01:39;;;;;;;5.20;2.55;;;0.90;99.90;;;;;;4986157;28;20185;-72
2021/01/14 13:04:08;;;;;;;3.90;2.15;;;1.00;99.90;;;;;;4967667;28;20586;-73
2021/01/14 13:06:35;;;;;;;3.67;2.30;;;1.10;99.90;;;;;;4970459;28;20502;-73